Canmore, Canada
Current Conditions -  °F | °C
As of 12:00 AM on Thursday 23 Oct 2014 (Local Time) from CYBW Reporting Station
Broken Clouds Broken Clouds  
Wind Chill:   Ceiling: 24000
Heat Index:   Visibility: 9mi
Dew Point:   Wind: 8mph
Humidity: 70%   Direction: 90°E
Pressure: 29.6"   Gusts: NA
Location:  51.09°N, 115.36°W
Report Text: CYBW 230600Z AUTO 09007KT 9SM BKN240 05/M00 A2960 RMK SLP041 DENSITY ALT 4000FT
Loading
Personal Weather Stations






























Interactive Weather Map
Tropical Storm Tracking
New forecast layout! Learn more

10-Day Weather Forecast

Advertisements
Track Severe Weather on mobile